sensor_id;sensor_type;location;lat;lon;timestamp;P1;durP1;ratioP1;P2;durP2;ratioP2
8893;SDS011;4483;48.622;9.230;2023-04-08T00:00:23;4.23;;;3.10;;
8893;SDS011;4483;48.622;9.230;2023-04-08T00:02:49;3.90;;;3.50;;
8893;SDS011;4483;48.622;9.230;2023-04-08T00:05:16;5.00;;;3.80;;
8893;SDS011;4483;48.622;9.230;2023-04-08T00:07:43;5.30;;;3.77;;
8893;SDS011;4483;48.622;9.230;2023-04-08T00:10:09;5.87;;;4.07;;
8893;SDS011;4483;48.622;9.230;2023-04-08T00:12:37;3.60;;;3.30;;
8893;SDS011;4483;48.622;9.230;2023-04-08T00:15:04;3.57;;;3.17;;
8893;SDS011;4483;48.622;9.230;2023-04-08T00:17:31;3.83;;;3.53;;
8893;SDS011;4483;48.622;9.230;2023-04-08T00:19:58;5.33;;;4.10;;
8893;SDS011;4483;48.622;9.230;2023-04-08T00:22:25;4.27;;;3.87;;
8893;SDS011;4483;48.622;9.230;2023-04-08T00:24:52;4.37;;;3.97;;
8893;SDS011;4483;48.622;9.230;2023-04-08T00:27:18;3.93;;;3.60;;
8893;SDS011;4483;48.622;9.230;2023-04-08T00:29:46;5.37;;;4.60;;
8893;SDS011;4483;48.622;9.230;2023-04-08T00:32:13;6.57;;;4.80;;
8893;SDS011;4483;48.622;9.230;2023-04-08T00:34:40;5.90;;;4.90;;
8893;SDS011;4483;48.622;9.230;2023-04-08T00:37:07;7.13;;;4.37;;
8893;SDS011;4483;48.622;9.230;2023-04-08T00:39:34;4.80;;;4.40;;
8893;SDS011;4483;48.622;9.230;2023-04-08T00:42:00;6.03;;;4.33;;
8893;SDS011;4483;48.622;9.230;2023-04-08T00:44:27;4.33;;;3.97;;
8893;SDS011;4483;48.622;9.230;2023-04-08T00:46:55;4.07;;;3.70;;
8893;SDS011;4483;48.622;9.230;2023-04-08T00:49:23;5.50;;;5.00;;
8893;SDS011;4483;48.622;9.230;2023-04-08T00:51:49;4.83;;;4.33;;
8893;SDS011;4483;48.622;9.230;2023-04-08T00:54:16;5.97;;;5.07;;
8893;SDS011;4483;48.622;9.230;2023-04-08T00:56:43;5.37;;;4.77;;
8893;SDS011;4483;48.622;9.230;2023-04-08T00:59:10;5.63;;;4.43;;
8893;SDS011;4483;48.622;9.230;2023-04-08T01:01:39;4.80;;;4.10;;
8893;SDS011;4483;48.622;9.230;2023-04-08T01:04:15;4.90;;;4.40;;
8893;SDS011;4483;48.622;9.230;2023-04-08T01:06:48;5.83;;;4.20;;
8893;SDS011;4483;48.622;9.230;2023-04-08T01:09:22;4.77;;;4.37;;
8893;SDS011;4483;48.622;9.230;2023-04-08T01:11:52;5.27;;;4.77;;
8893;SDS011;4483;48.622;9.230;2023-04-08T01:14:22;5.20;;;4.70;;
8893;SDS011;4483;48.622;9.230;2023-04-08T01:16:53;6.50;;;5.10;;
8893;SDS011;4483;48.622;9.230;2023-04-08T01:19:26;7.63;;;5.03;;
8893;SDS011;4483;48.622;9.230;2023-04-08T01:21:59;6.60;;;5.90;;
8893;SDS011;4483;48.622;9.230;2023-04-08T01:24:32;6.30;;;5.37;;
8893;SDS011;4483;48.622;9.230;2023-04-08T01:27:05;7.57;;;5.63;;
8893;SDS011;4483;48.622;9.230;2023-04-08T01:29:33;7.20;;;6.50;;
8893;SDS011;4483;48.622;9.230;2023-04-08T01:32:00;6.87;;;6.17;;
8893;SDS011;4483;48.622;9.230;2023-04-08T01:34:28;8.97;;;6.13;;
8893;SDS011;4483;48.622;9.230;2023-04-08T01:36:56;7.40;;;6.70;;
8893;SDS011;4483;48.622;9.230;2023-04-08T01:39:24;8.47;;;7.07;;
8893;SDS011;4483;48.622;9.230;2023-04-08T01:41:52;6.67;;;5.97;;
8893;SDS011;4483;48.622;9.230;2023-04-08T01:44:21;8.67;;;6.93;;
8893;SDS011;4483;48.622;9.230;2023-04-08T01:46:49;7.87;;;6.90;;
8893;SDS011;4483;48.622;9.230;2023-04-08T01:49:18;7.43;;;6.53;;
8893;SDS011;4483;48.622;9.230;2023-04-08T01:51:46;7.43;;;6.73;;
8893;SDS011;4483;48.622;9.230;2023-04-08T01:54:14;8.53;;;7.73;;
8893;SDS011;4483;48.622;9.230;2023-04-08T01:56:40;7.13;;;6.43;;
8893;SDS011;4483;48.622;9.230;2023-04-08T01:59:11;7.63;;;6.83;;
8893;SDS011;4483;48.622;9.230;2023-04-08T02:01:42;7.43;;;6.57;;
8893;SDS011;4483;48.622;9.230;2023-04-08T02:04:11;7.40;;;6.47;;
8893;SDS011;4483;48.622;9.230;2023-04-08T02:06:38;10.33;;;6.30;;
8893;SDS011;4483;48.622;9.230;2023-04-08T02:09:05;8.33;;;6.37;;
8893;SDS011;4483;48.622;9.230;2023-04-08T02:11:32;6.77;;;6.10;;
8893;SDS011;4483;48.622;9.230;2023-04-08T02:13:59;8.40;;;6.20;;
8893;SDS011;4483;48.622;9.230;2023-04-08T02:16:27;6.83;;;5.80;;
8893;SDS011;4483;48.622;9.230;2023-04-08T02:19:01;7.10;;;6.27;;
8893;SDS011;4483;48.622;9.230;2023-04-08T02:21:35;6.43;;;5.73;;
8893;SDS011;4483;48.622;9.230;2023-04-08T02:24:09;7.30;;;6.60;;
8893;SDS011;4483;48.622;9.230;2023-04-08T02:26:39;6.67;;;6.07;;
8893;SDS011;4483;48.622;9.230;2023-04-08T02:29:09;8.50;;;7.07;;
8893;SDS011;4483;48.622;9.230;2023-04-08T02:31:40;7.33;;;6.13;;
8893;SDS011;4483;48.622;9.230;2023-04-08T02:34:08;7.10;;;6.40;;
8893;SDS011;4483;48.622;9.230;2023-04-08T02:36:36;8.33;;;6.50;;
8893;SDS011;4483;48.622;9.230;2023-04-08T02:39:05;7.20;;;6.50;;
8893;SDS011;4483;48.622;9.230;2023-04-08T02:41:32;8.13;;;6.90;;
8893;SDS011;4483;48.622;9.230;2023-04-08T02:44:00;7.20;;;5.93;;
8893;SDS011;4483;48.622;9.230;2023-04-08T02:46:27;10.33;;;6.50;;
8893;SDS011;4483;48.622;9.230;2023-04-08T02:48:53;6.40;;;5.80;;
8893;SDS011;4483;48.622;9.230;2023-04-08T02:51:21;6.70;;;6.00;;
8893;SDS011;4483;48.622;9.230;2023-04-08T02:53:48;7.20;;;6.50;;
8893;SDS011;4483;48.622;9.230;2023-04-08T02:56:14;8.37;;;6.60;;
8893;SDS011;4483;48.622;9.230;2023-04-08T02:58:41;7.57;;;6.17;;
8893;SDS011;4483;48.622;9.230;2023-04-08T03:01:08;7.00;;;6.30;;
8893;SDS011;4483;48.622;9.230;2023-04-08T03:03:34;6.83;;;6.13;;
8893;SDS011;4483;48.622;9.230;2023-04-08T03:06:02;7.37;;;6.30;;
8893;SDS011;4483;48.622;9.230;2023-04-08T03:08:30;7.03;;;6.10;;
8893;SDS011;4483;48.622;9.230;2023-04-08T03:10:57;7.27;;;5.77;;
8893;SDS011;4483;48.622;9.230;2023-04-08T03:13:24;6.87;;;5.90;;
8893;SDS011;4483;48.622;9.230;2023-04-08T03:15:51;6.80;;;6.17;;
8893;SDS011;4483;48.622;9.230;2023-04-08T03:18:18;7.20;;;6.30;;
8893;SDS011;4483;48.622;9.230;2023-04-08T03:20:44;7.10;;;6.07;;
8893;SDS011;4483;48.622;9.230;2023-04-08T03:23:11;7.27;;;6.23;;
8893;SDS011;4483;48.622;9.230;2023-04-08T03:25:39;7.10;;;6.40;;
8893;SDS011;4483;48.622;9.230;2023-04-08T03:28:06;7.20;;;6.20;;
8893;SDS011;4483;48.622;9.230;2023-04-08T03:30:32;6.73;;;6.07;;
8893;SDS011;4483;48.622;9.230;2023-04-08T03:32:59;6.33;;;5.63;;
8893;SDS011;4483;48.622;9.230;2023-04-08T03:35:27;6.90;;;6.20;;
8893;SDS011;4483;48.622;9.230;2023-04-08T03:37:54;6.10;;;5.50;;
8893;SDS011;4483;48.622;9.230;2023-04-08T03:40:22;8.67;;;6.47;;
8893;SDS011;4483;48.622;9.230;2023-04-08T03:42:50;6.73;;;6.00;;
8893;SDS011;4483;48.622;9.230;2023-04-08T03:45:17;7.73;;;6.40;;
8893;SDS011;4483;48.622;9.230;2023-04-08T03:47:44;6.37;;;5.73;;
8893;SDS011;4483;48.622;9.230;2023-04-08T03:50:11;7.37;;;6.00;;
8893;SDS011;4483;48.622;9.230;2023-04-08T03:52:37;6.57;;;5.90;;
8893;SDS011;4483;48.622;9.230;2023-04-08T03:55:04;6.13;;;5.53;;
8893;SDS011;4483;48.622;9.230;2023-04-08T03:57:31;6.70;;;6.03;;
8893;SDS011;4483;48.622;9.230;2023-04-08T03:59:59;8.43;;;5.93;;
8893;SDS011;4483;48.622;9.230;2023-04-08T04:02:26;6.10;;;5.47;;
8893;SDS011;4483;48.622;9.230;2023-04-08T04:04:52;7.37;;;5.83;;
8893;SDS011;4483;48.622;9.230;2023-04-08T04:07:19;5.90;;;5.30;;
8893;SDS011;4483;48.622;9.230;2023-04-08T04:09:45;7.40;;;6.23;;
8893;SDS011;4483;48.622;9.230;2023-04-08T04:12:12;6.40;;;5.50;;
8893;SDS011;4483;48.622;9.230;2023-04-08T04:14:39;7.17;;;6.20;;
8893;SDS011;4483;48.622;9.230;2023-04-08T04:17:07;8.13;;;5.87;;
8893;SDS011;4483;48.622;9.230;2023-04-08T04:19:33;6.70;;;6.03;;
8893;SDS011;4483;48.622;9.230;2023-04-08T04:22:00;6.10;;;5.50;;
8893;SDS011;4483;48.622;9.230;2023-04-08T04:24:27;6.80;;;6.10;;
8893;SDS011;4483;48.622;9.230;2023-04-08T04:26:54;6.47;;;5.77;;
8893;SDS011;4483;48.622;9.230;2023-04-08T04:29:20;7.73;;;6.23;;
8893;SDS011;4483;48.622;9.230;2023-04-08T04:31:48;7.07;;;5.47;;
8893;SDS011;4483;48.622;9.230;2023-04-08T04:34:16;6.40;;;5.60;;
8893;SDS011;4483;48.622;9.230;2023-04-08T04:36:44;6.23;;;5.63;;
8893;SDS011;4483;48.622;9.230;2023-04-08T04:39:11;6.77;;;5.63;;
8893;SDS011;4483;48.622;9.230;2023-04-08T04:41:38;6.00;;;5.33;;
8893;SDS011;4483;48.622;9.230;2023-04-08T04:44:04;7.07;;;5.73;;
8893;SDS011;4483;48.622;9.230;2023-04-08T04:46:31;6.20;;;5.60;;
8893;SDS011;4483;48.622;9.230;2023-04-08T04:48:58;7.03;;;5.73;;
8893;SDS011;4483;48.622;9.230;2023-04-08T04:51:26;8.20;;;6.40;;
8893;SDS011;4483;48.622;9.230;2023-04-08T04:53:53;7.03;;;6.17;;
8893;SDS011;4483;48.622;9.230;2023-04-08T04:56:19;6.57;;;5.90;;
8893;SDS011;4483;48.622;9.230;2023-04-08T04:58:46;6.83;;;6.13;;
8893;SDS011;4483;48.622;9.230;2023-04-08T05:01:12;6.93;;;5.27;;
8893;SDS011;4483;48.622;9.230;2023-04-08T05:03:39;8.63;;;5.93;;
8893;SDS011;4483;48.622;9.230;2023-04-08T05:06:06;7.43;;;5.60;;
8893;SDS011;4483;48.622;9.230;2023-04-08T05:08:34;7.10;;;6.20;;
8893;SDS011;4483;48.622;9.230;2023-04-08T05:11:01;7.07;;;6.33;;
8893;SDS011;4483;48.622;9.230;2023-04-08T05:13:27;10.70;;;6.80;;
8893;SDS011;4483;48.622;9.230;2023-04-08T05:15:54;9.67;;;6.33;;
8893;SDS011;4483;48.622;9.230;2023-04-08T05:18:21;8.17;;;6.67;;
8893;SDS011;4483;48.622;9.230;2023-04-08T05:20:47;6.60;;;5.73;;
8893;SDS011;4483;48.622;9.230;2023-04-08T05:23:14;6.67;;;5.97;;
8893;SDS011;4483;48.622;9.230;2023-04-08T05:25:42;7.50;;;6.30;;
8893;SDS011;4483;48.622;9.230;2023-04-08T05:28:09;8.83;;;6.70;;
8893;SDS011;4483;48.622;9.230;2023-04-08T05:30:36;7.60;;;6.20;;
8893;SDS011;4483;48.622;9.230;2023-04-08T05:33:02;10.37;;;6.03;;
8893;SDS011;4483;48.622;9.230;2023-04-08T05:35:29;7.37;;;5.90;;
8893;SDS011;4483;48.622;9.230;2023-04-08T05:37:56;7.17;;;5.73;;
8893;SDS011;4483;48.622;9.230;2023-04-08T05:40:23;7.27;;;5.70;;
8893;SDS011;4483;48.622;9.230;2023-04-08T05:42:51;7.93;;;5.83;;
8893;SDS011;4483;48.622;9.230;2023-04-08T05:45:17;6.93;;;5.97;;
8893;SDS011;4483;48.622;9.230;2023-04-08T05:47:44;8.00;;;5.60;;
8893;SDS011;4483;48.622;9.230;2023-04-08T05:50:11;6.80;;;5.97;;
8893;SDS011;4483;48.622;9.230;2023-04-08T05:52:40;6.47;;;5.80;;
8893;SDS011;4483;48.622;9.230;2023-04-08T05:55:08;6.47;;;5.63;;
8893;SDS011;4483;48.622;9.230;2023-04-08T05:57:34;7.13;;;5.77;;
8893;SDS011;4483;48.622;9.230;2023-04-08T06:00:03;5.93;;;5.03;;
8893;SDS011;4483;48.622;9.230;2023-04-08T06:02:31;8.23;;;5.97;;
8893;SDS011;4483;48.622;9.230;2023-04-08T06:04:57;6.10;;;5.43;;
8893;SDS011;4483;48.622;9.230;2023-04-08T06:07:24;6.20;;;5.60;;
8893;SDS011;4483;48.622;9.230;2023-04-08T06:09:50;6.50;;;5.60;;
8893;SDS011;4483;48.622;9.230;2023-04-08T06:12:17;8.67;;;5.73;;
8893;SDS011;4483;48.622;9.230;2023-04-08T06:14:44;9.00;;;5.53;;
8893;SDS011;4483;48.622;9.230;2023-04-08T06:17:12;5.97;;;5.33;;
8893;SDS011;4483;48.622;9.230;2023-04-08T06:19:38;7.03;;;5.77;;
8893;SDS011;4483;48.622;9.230;2023-04-08T06:22:05;7.40;;;5.90;;
8893;SDS011;4483;48.622;9.230;2023-04-08T06:24:32;7.73;;;6.03;;
8893;SDS011;4483;48.622;9.230;2023-04-08T06:26:59;7.07;;;5.93;;
8893;SDS011;4483;48.622;9.230;2023-04-08T06:29:26;6.60;;;5.53;;
8893;SDS011;4483;48.622;9.230;2023-04-08T06:31:54;7.23;;;6.00;;
8893;SDS011;4483;48.622;9.230;2023-04-08T06:34:22;5.87;;;5.30;;
8893;SDS011;4483;48.622;9.230;2023-04-08T06:36:48;6.23;;;5.70;;
8893;SDS011;4483;48.622;9.230;2023-04-08T06:39:15;6.53;;;5.43;;
8893;SDS011;4483;48.622;9.230;2023-04-08T06:41:43;6.33;;;5.73;;
8893;SDS011;4483;48.622;9.230;2023-04-08T06:44:10;7.23;;;5.57;;
8893;SDS011;4483;48.622;9.230;2023-04-08T06:46:36;6.63;;;5.80;;
8893;SDS011;4483;48.622;9.230;2023-04-08T06:49:03;6.63;;;5.87;;
8893;SDS011;4483;48.622;9.230;2023-04-08T06:51:32;8.53;;;6.00;;
8893;SDS011;4483;48.622;9.230;2023-04-08T06:53:59;7.33;;;5.37;;
8893;SDS011;4483;48.622;9.230;2023-04-08T06:56:25;6.93;;;6.20;;
8893;SDS011;4483;48.622;9.230;2023-04-08T06:58:52;7.32;;;6.63;;
8893;SDS011;4483;48.622;9.230;2023-04-08T07:01:18;7.77;;;6.97;;
8893;SDS011;4483;48.622;9.230;2023-04-08T07:03:45;6.80;;;6.10;;
8893;SDS011;4483;48.622;9.230;2023-04-08T07:06:12;7.40;;;6.50;;
8893;SDS011;4483;48.622;9.230;2023-04-08T07:08:40;7.13;;;6.00;;
8893;SDS011;4483;48.622;9.230;2023-04-08T07:11:07;9.10;;;6.50;;
8893;SDS011;4483;48.622;9.230;2023-04-08T07:13:33;7.23;;;6.13;;
8893;SDS011;4483;48.622;9.230;2023-04-08T07:16:00;8.43;;;6.50;;
8893;SDS011;4483;48.622;9.230;2023-04-08T07:18:27;8.37;;;6.60;;
8893;SDS011;4483;48.622;9.230;2023-04-08T07:20:54;7.23;;;6.23;;
8893;SDS011;4483;48.622;9.230;2023-04-08T07:23:22;7.80;;;6.10;;
8893;SDS011;4483;48.622;9.230;2023-04-08T07:25:50;7.80;;;7.00;;
8893;SDS011;4483;48.622;9.230;2023-04-08T07:28:16;7.17;;;6.43;;
8893;SDS011;4483;48.622;9.230;2023-04-08T07:30:43;7.03;;;6.43;;
8893;SDS011;4483;48.622;9.230;2023-04-08T07:33:10;7.73;;;6.50;;
8893;SDS011;4483;48.622;9.230;2023-04-08T07:35:36;7.40;;;6.30;;
8893;SDS011;4483;48.622;9.230;2023-04-08T07:38:03;7.40;;;6.70;;
8893;SDS011;4483;48.622;9.230;2023-04-08T07:40:33;7.13;;;6.43;;
8893;SDS011;4483;48.622;9.230;2023-04-08T07:43:01;6.60;;;6.00;;
8893;SDS011;4483;48.622;9.230;2023-04-08T07:45:28;11.97;;;6.20;;
8893;SDS011;4483;48.622;9.230;2023-04-08T07:47:55;5.90;;;5.30;;
8893;SDS011;4483;48.622;9.230;2023-04-08T07:50:21;6.83;;;5.47;;
8893;SDS011;4483;48.622;9.230;2023-04-08T07:52:48;5.43;;;5.00;;
8893;SDS011;4483;48.622;9.230;2023-04-08T07:55:14;6.10;;;5.53;;
8893;SDS011;4483;48.622;9.230;2023-04-08T07:57:41;6.87;;;6.07;;
8893;SDS011;4483;48.622;9.230;2023-04-08T08:00:10;8.00;;;5.80;;
8893;SDS011;4483;48.622;9.230;2023-04-08T08:02:39;6.77;;;6.03;;
8893;SDS011;4483;48.622;9.230;2023-04-08T08:05:06;6.23;;;5.63;;
8893;SDS011;4483;48.622;9.230;2023-04-08T08:07:33;7.00;;;6.00;;
8893;SDS011;4483;48.622;9.230;2023-04-08T08:10:00;7.70;;;6.50;;
8893;SDS011;4483;48.622;9.230;2023-04-08T08:12:27;8.67;;;7.23;;
8893;SDS011;4483;48.622;9.230;2023-04-08T08:14:53;10.07;;;7.17;;
8893;SDS011;4483;48.622;9.230;2023-04-08T08:17:24;8.17;;;7.30;;
8893;SDS011;4483;48.622;9.230;2023-04-08T08:19:54;8.23;;;7.30;;
8893;SDS011;4483;48.622;9.230;2023-04-08T08:22:21;7.90;;;6.77;;
8893;SDS011;4483;48.622;9.230;2023-04-08T08:24:47;9.33;;;7.80;;
8893;SDS011;4483;48.622;9.230;2023-04-08T08:27:14;9.23;;;7.17;;
8893;SDS011;4483;48.622;9.230;2023-04-08T08:29:41;10.67;;;7.37;;
8893;SDS011;4483;48.622;9.230;2023-04-08T08:32:08;8.77;;;7.40;;
8893;SDS011;4483;48.622;9.230;2023-04-08T08:34:36;8.77;;;7.07;;
8893;SDS011;4483;48.622;9.230;2023-04-08T08:37:03;8.37;;;7.50;;
8893;SDS011;4483;48.622;9.230;2023-04-08T08:39:30;7.73;;;6.97;;
8893;SDS011;4483;48.622;9.230;2023-04-08T08:41:57;8.83;;;7.37;;
8893;SDS011;4483;48.622;9.230;2023-04-08T08:44:24;10.43;;;8.87;;
8893;SDS011;4483;48.622;9.230;2023-04-08T08:46:51;9.93;;;7.80;;
8893;SDS011;4483;48.622;9.230;2023-04-08T08:49:18;8.70;;;7.70;;
8893;SDS011;4483;48.622;9.230;2023-04-08T08:51:46;7.97;;;6.97;;
8893;SDS011;4483;48.622;9.230;2023-04-08T08:54:15;8.77;;;7.87;;
8893;SDS011;4483;48.622;9.230;2023-04-08T08:56:42;10.27;;;7.00;;
8893;SDS011;4483;48.622;9.230;2023-04-08T08:59:08;8.33;;;7.13;;
8893;SDS011;4483;48.622;9.230;2023-04-08T09:01:36;9.07;;;7.30;;
8893;SDS011;4483;48.622;9.230;2023-04-08T09:04:08;8.20;;;7.13;;
8893;SDS011;4483;48.622;9.230;2023-04-08T09:06:36;9.37;;;7.47;;
8893;SDS011;4483;48.622;9.230;2023-04-08T09:09:05;8.83;;;7.20;;
8893;SDS011;4483;48.622;9.230;2023-04-08T09:11:34;7.73;;;6.93;;
8893;SDS011;4483;48.622;9.230;2023-04-08T09:14:01;8.10;;;7.20;;
8893;SDS011;4483;48.622;9.230;2023-04-08T09:16:28;8.20;;;7.40;;
8893;SDS011;4483;48.622;9.230;2023-04-08T09:18:57;7.83;;;6.80;;
8893;SDS011;4483;48.622;9.230;2023-04-08T09:21:34;7.37;;;6.67;;
8893;SDS011;4483;48.622;9.230;2023-04-08T09:24:01;9.60;;;7.33;;
8893;SDS011;4483;48.622;9.230;2023-04-08T09:26:30;8.80;;;7.90;;
8893;SDS011;4483;48.622;9.230;2023-04-08T09:28:57;7.87;;;7.10;;
8893;SDS011;4483;48.622;9.230;2023-04-08T09:31:25;8.80;;;7.07;;
8893;SDS011;4483;48.622;9.230;2023-04-08T09:33:54;10.10;;;8.00;;
8893;SDS011;4483;48.622;9.230;2023-04-08T09:36:22;8.03;;;7.33;;
8893;SDS011;4483;48.622;9.230;2023-04-08T09:38:50;7.93;;;7.13;;
8893;SDS011;4483;48.622;9.230;2023-04-08T09:41:17;8.20;;;7.40;;
8893;SDS011;4483;48.622;9.230;2023-04-08T09:43:49;9.20;;;7.63;;
8893;SDS011;4483;48.622;9.230;2023-04-08T09:46:21;8.97;;;7.20;;
8893;SDS011;4483;48.622;9.230;2023-04-08T09:48:55;8.10;;;7.30;;
8893;SDS011;4483;48.622;9.230;2023-04-08T09:51:31;8.27;;;7.43;;
8893;SDS011;4483;48.622;9.230;2023-04-08T09:54:02;7.80;;;7.10;;
8893;SDS011;4483;48.622;9.230;2023-04-08T09:56:35;8.70;;;7.20;;
8893;SDS011;4483;48.622;9.230;2023-04-08T09:59:12;8.13;;;7.17;;
8893;SDS011;4483;48.622;9.230;2023-04-08T10:01:44;7.97;;;7.20;;
8893;SDS011;4483;48.622;9.230;2023-04-08T10:04:15;8.20;;;7.43;;
8893;SDS011;4483;48.622;9.230;2023-04-08T10:06:45;8.20;;;7.40;;
8893;SDS011;4483;48.622;9.230;2023-04-08T10:09:18;10.30;;;7.17;;
8893;SDS011;4483;48.622;9.230;2023-04-08T10:11:46;7.80;;;6.90;;
8893;SDS011;4483;48.622;9.230;2023-04-08T10:14:14;8.00;;;7.23;;
8893;SDS011;4483;48.622;9.230;2023-04-08T10:16:41;9.10;;;7.13;;
8893;SDS011;4483;48.622;9.230;2023-04-08T10:22:02;8.27;;;7.40;;
8893;SDS011;4483;48.622;9.230;2023-04-08T10:24:29;8.00;;;7.20;;
8893;SDS011;4483;48.622;9.230;2023-04-08T10:26:56;9.67;;;7.20;;
8893;SDS011;4483;48.622;9.230;2023-04-08T10:29:31;10.30;;;7.60;;
8893;SDS011;4483;48.622;9.230;2023-04-08T10:31:59;8.40;;;7.57;;
8893;SDS011;4483;48.622;9.230;2023-04-08T10:34:27;10.07;;;8.07;;
8893;SDS011;4483;48.622;9.230;2023-04-08T10:36:55;8.10;;;7.30;;
8893;SDS011;4483;48.622;9.230;2023-04-08T10:39:26;7.40;;;6.70;;
8893;SDS011;4483;48.622;9.230;2023-04-08T10:41:52;8.40;;;7.33;;
8893;SDS011;4483;48.622;9.230;2023-04-08T10:44:20;8.40;;;7.50;;
8893;SDS011;4483;48.622;9.230;2023-04-08T10:46:50;7.70;;;7.00;;
8893;SDS011;4483;48.622;9.230;2023-04-08T10:49:17;7.80;;;7.00;;
8893;SDS011;4483;48.622;9.230;2023-04-08T10:51:46;8.40;;;7.00;;
8893;SDS011;4483;48.622;9.230;2023-04-08T10:54:14;10.07;;;7.30;;
8893;SDS011;4483;48.622;9.230;2023-04-08T10:56:42;7.80;;;7.00;;
8893;SDS011;4483;48.622;9.230;2023-04-08T10:59:09;8.10;;;7.30;;
8893;SDS011;4483;48.622;9.230;2023-04-08T11:01:37;7.27;;;6.67;;
8893;SDS011;4483;48.622;9.230;2023-04-08T11:04:07;8.27;;;6.93;;
8893;SDS011;4483;48.622;9.230;2023-04-08T11:06:37;8.87;;;7.30;;
8893;SDS011;4483;48.622;9.230;2023-04-08T11:09:04;9.63;;;7.23;;
8893;SDS011;4483;48.622;9.230;2023-04-08T11:11:31;7.90;;;7.17;;
8893;SDS011;4483;48.622;9.230;2023-04-08T11:13:58;7.63;;;6.83;;
8893;SDS011;4483;48.622;9.230;2023-04-08T11:16:26;8.33;;;7.30;;
8893;SDS011;4483;48.622;9.230;2023-04-08T11:18:53;8.20;;;7.33;;
8893;SDS011;4483;48.622;9.230;2023-04-08T11:21:23;7.93;;;7.20;;
8893;SDS011;4483;48.622;9.230;2023-04-08T11:23:53;10.67;;;7.00;;
8893;SDS011;4483;48.622;9.230;2023-04-08T11:26:19;8.63;;;7.03;;
8893;SDS011;4483;48.622;9.230;2023-04-08T11:28:47;8.47;;;7.57;;
8893;SDS011;4483;48.622;9.230;2023-04-08T11:31:15;8.47;;;6.93;;
8893;SDS011;4483;48.622;9.230;2023-04-08T11:33:44;8.83;;;7.27;;
8893;SDS011;4483;48.622;9.230;2023-04-08T11:36:12;9.87;;;6.70;;
8893;SDS011;4483;48.622;9.230;2023-04-08T11:38:41;7.77;;;7.07;;
8893;SDS011;4483;48.622;9.230;2023-04-08T11:41:07;8.70;;;7.10;;
8893;SDS011;4483;48.622;9.230;2023-04-08T11:43:35;8.50;;;7.63;;
8893;SDS011;4483;48.622;9.230;2023-04-08T11:46:07;7.37;;;6.63;;
8893;SDS011;4483;48.622;9.230;2023-04-08T11:48:35;8.30;;;7.50;;
8893;SDS011;4483;48.622;9.230;2023-04-08T11:51:02;8.40;;;7.33;;
8893;SDS011;4483;48.622;9.230;2023-04-08T11:53:30;7.60;;;6.90;;
8893;SDS011;4483;48.622;9.230;2023-04-08T11:56:05;8.13;;;7.23;;
8893;SDS011;4483;48.622;9.230;2023-04-08T11:58:41;8.17;;;7.03;;
8893;SDS011;4483;48.622;9.230;2023-04-08T12:01:08;8.47;;;7.53;;
8893;SDS011;4483;48.622;9.230;2023-04-08T12:03:34;9.27;;;7.37;;
8893;SDS011;4483;48.622;9.230;2023-04-08T12:06:01;8.57;;;7.67;;
8893;SDS011;4483;48.622;9.230;2023-04-08T12:08:28;8.17;;;7.20;;
8893;SDS011;4483;48.622;9.230;2023-04-08T12:10:55;8.00;;;7.30;;
8893;SDS011;4483;48.622;9.230;2023-04-08T12:13:23;8.17;;;7.37;;
8893;SDS011;4483;48.622;9.230;2023-04-08T12:15:51;9.93;;;8.03;;
8893;SDS011;4483;48.622;9.230;2023-04-08T12:18:18;8.63;;;7.47;;
8893;SDS011;4483;48.622;9.230;2023-04-08T12:20:45;8.23;;;7.43;;
8893;SDS011;4483;48.622;9.230;2023-04-08T12:23:11;8.17;;;7.37;;
8893;SDS011;4483;48.622;9.230;2023-04-08T12:25:38;7.80;;;7.00;;
8893;SDS011;4483;48.622;9.230;2023-04-08T12:28:04;7.57;;;6.87;;
8893;SDS011;4483;48.622;9.230;2023-04-08T12:30:34;7.70;;;6.87;;
8893;SDS011;4483;48.622;9.230;2023-04-08T12:33:01;8.53;;;6.90;;
8893;SDS011;4483;48.622;9.230;2023-04-08T12:35:28;7.40;;;6.63;;
8893;SDS011;4483;48.622;9.230;2023-04-08T12:37:55;9.17;;;6.80;;
8893;SDS011;4483;48.622;9.230;2023-04-08T12:40:22;7.83;;;6.87;;
8893;SDS011;4483;48.622;9.230;2023-04-08T12:42:49;7.50;;;6.77;;
8893;SDS011;4483;48.622;9.230;2023-04-08T12:45:15;8.47;;;7.30;;
8893;SDS011;4483;48.622;9.230;2023-04-08T12:47:43;9.33;;;7.33;;
8893;SDS011;4483;48.622;9.230;2023-04-08T12:50:11;8.17;;;7.00;;
8893;SDS011;4483;48.622;9.230;2023-04-08T12:52:39;11.23;;;7.00;;
8893;SDS011;4483;48.622;9.230;2023-04-08T12:55:06;10.43;;;7.43;;
8893;SDS011;4483;48.622;9.230;2023-04-08T12:57:33;8.27;;;7.47;;
8893;SDS011;4483;48.622;9.230;2023-04-08T13:00:00;11.77;;;7.57;;
8893;SDS011;4483;48.622;9.230;2023-04-08T13:02:28;8.43;;;7.30;;
8893;SDS011;4483;48.622;9.230;2023-04-08T13:04:56;7.67;;;6.87;;
8893;SDS011;4483;48.622;9.230;2023-04-08T13:07:23;8.30;;;7.50;;
8893;SDS011;4483;48.622;9.230;2023-04-08T13:09:50;7.83;;;7.10;;
8893;SDS011;4483;48.622;9.230;2023-04-08T13:12:16;7.80;;;7.10;;
8893;SDS011;4483;48.622;9.230;2023-04-08T13:14:43;7.63;;;6.87;;
8893;SDS011;4483;48.622;9.230;2023-04-08T13:17:10;7.83;;;7.03;;
8893;SDS011;4483;48.622;9.230;2023-04-08T13:19:37;11.30;;;7.40;;
8893;SDS011;4483;48.622;9.230;2023-04-08T13:22:05;8.57;;;7.77;;
8893;SDS011;4483;48.622;9.230;2023-04-08T13:24:31;7.43;;;6.73;;
8893;SDS011;4483;48.622;9.230;2023-04-08T13:26:58;8.23;;;7.43;;
8893;SDS011;4483;48.622;9.230;2023-04-08T13:29:25;8.00;;;7.10;;
8893;SDS011;4483;48.622;9.230;2023-04-08T13:31:52;7.53;;;6.83;;
8893;SDS011;4483;48.622;9.230;2023-04-08T13:34:19;8.23;;;7.47;;
8893;SDS011;4483;48.622;9.230;2023-04-08T13:36:45;7.80;;;7.10;;
8893;SDS011;4483;48.622;9.230;2023-04-08T13:39:14;7.87;;;7.07;;
8893;SDS011;4483;48.622;9.230;2023-04-08T13:41:40;7.70;;;6.90;;
8893;SDS011;4483;48.622;9.230;2023-04-08T13:44:07;8.73;;;7.43;;
8893;SDS011;4483;48.622;9.230;2023-04-08T13:46:34;7.27;;;6.63;;
8893;SDS011;4483;48.622;9.230;2023-04-08T13:49:01;7.87;;;7.13;;
8893;SDS011;4483;48.622;9.230;2023-04-08T13:51:28;9.77;;;7.27;;
8893;SDS011;4483;48.622;9.230;2023-04-08T13:53:55;8.20;;;7.40;;
8893;SDS011;4483;48.622;9.230;2023-04-08T13:56:23;8.30;;;7.23;;
8893;SDS011;4483;48.622;9.230;2023-04-08T13:58:50;8.47;;;7.67;;
8893;SDS011;4483;48.622;9.230;2023-04-08T14:01:18;8.27;;;7.47;;
8893;SDS011;4483;48.622;9.230;2023-04-08T14:03:45;8.40;;;7.13;;
8893;SDS011;4483;48.622;9.230;2023-04-08T14:06:13;9.90;;;7.63;;
8893;SDS011;4483;48.622;9.230;2023-04-08T14:08:40;8.83;;;7.27;;
8893;SDS011;4483;48.622;9.230;2023-04-08T14:11:07;8.13;;;7.33;;
8893;SDS011;4483;48.622;9.230;2023-04-08T14:13:35;9.27;;;7.37;;
8893;SDS011;4483;48.622;9.230;2023-04-08T14:16:01;9.40;;;7.23;;
8893;SDS011;4483;48.622;9.230;2023-04-08T14:18:29;7.23;;;6.53;;
8893;SDS011;4483;48.622;9.230;2023-04-08T14:20:56;8.37;;;7.57;;
8893;SDS011;4483;48.622;9.230;2023-04-08T14:23:23;7.43;;;6.60;;
8893;SDS011;4483;48.622;9.230;2023-04-08T14:25:50;8.33;;;7.30;;
8893;SDS011;4483;48.622;9.230;2023-04-08T14:28:16;7.90;;;6.70;;
8893;SDS011;4483;48.622;9.230;2023-04-08T14:30:44;7.00;;;6.40;;
8893;SDS011;4483;48.622;9.230;2023-04-08T14:33:11;8.57;;;7.03;;
8893;SDS011;4483;48.622;9.230;2023-04-08T14:35:38;8.73;;;7.20;;
8893;SDS011;4483;48.622;9.230;2023-04-08T14:38:05;7.50;;;6.77;;
8893;SDS011;4483;48.622;9.230;2023-04-08T14:40:31;7.97;;;7.17;;
8893;SDS011;4483;48.622;9.230;2023-04-08T14:42:58;8.27;;;6.87;;
8893;SDS011;4483;48.622;9.230;2023-04-08T14:45:25;8.30;;;7.30;;
8893;SDS011;4483;48.622;9.230;2023-04-08T14:47:53;7.47;;;6.77;;
8893;SDS011;4483;48.622;9.230;2023-04-08T14:50:20;8.07;;;7.03;;
8893;SDS011;4483;48.622;9.230;2023-04-08T14:52:46;7.23;;;6.63;;
8893;SDS011;4483;48.622;9.230;2023-04-08T14:55:13;8.57;;;7.00;;
8893;SDS011;4483;48.622;9.230;2023-04-08T14:57:40;9.53;;;7.10;;
8893;SDS011;4483;48.622;9.230;2023-04-08T15:00:07;8.53;;;7.20;;
8893;SDS011;4483;48.622;9.230;2023-04-08T15:02:35;11.13;;;7.17;;
8893;SDS011;4483;48.622;9.230;2023-04-08T15:05:03;8.03;;;7.03;;
8893;SDS011;4483;48.622;9.230;2023-04-08T15:07:30;8.00;;;7.00;;
8893;SDS011;4483;48.622;9.230;2023-04-08T15:09:57;8.53;;;7.60;;
8893;SDS011;4483;48.622;9.230;2023-04-08T15:12:23;7.83;;;7.13;;
8893;SDS011;4483;48.622;9.230;2023-04-08T15:14:50;11.63;;;7.43;;
8893;SDS011;4483;48.622;9.230;2023-04-08T15:17:16;10.60;;;7.37;;
8893;SDS011;4483;48.622;9.230;2023-04-08T15:19:44;8.40;;;7.27;;